Time;durP1;ratioP1;P1;durP2;ratioP2;P2;SDS_P1;SDS_P2;PMS_P1;PMS_P2;Temp;Humidity;BMP_temperature;BMP_pressure;BME280_temperature;BME280_humidity;BME280_pressure;Samples;Min_cycle;Max_cycle;Signal;HPM_P1;HPM_P2
2022/05/16 00:00:27;;;;;;;6.47;3.75;;;18.50;53.60;;;;;;5073558;28;20322;-76
2022/05/16 00:02:54;;;;;;;;;;;18.40;53.70;;;;;;5075287;28;20044;-76
2022/05/16 00:05:22;;;;;;;7.68;3.58;;;18.30;52.70;;;;;;5057314;28;19935;-76
2022/05/16 00:07:57;;;;;;;6.70;3.45;;;18.30;53.60;;;;;;5092846;28;20487;-72
2022/05/16 00:10:24;;;;;;;6.63;3.60;;;18.30;53.40;;;;;;5058531;28;20043;-76
2022/05/16 00:12:51;;;;;;;6.57;3.35;;;18.30;53.80;;;;;;5074562;28;20040;-74
2022/05/16 00:15:20;;;;;;;7.68;3.25;;;18.30;53.90;;;;;;5056393;28;20024;-76
2022/05/16 00:17:47;;;;;;;8.88;4.05;;;18.30;54.00;;;;;;5074294;28;20044;-76
2022/05/16 00:20:17;;;;;;;6.45;3.60;;;18.30;53.60;;;;;;5073722;28;20481;-73
2022/05/16 00:22:43;;;;;;;6.55;3.20;;;18.20;54.30;;;;;;5075755;28;20040;-72
2022/05/16 00:25:12;;;;;;;;;;;18.10;53.80;;;;;;5078180;28;20043;-72
2022/05/16 00:27:38;;;;;;;6.47;3.03;;;18.00;53.30;;;;;;5078259;28;19924;-73
2022/05/16 00:30:07;;;;;;;6.63;3.40;;;18.00;54.10;;;;;;5095188;28;20054;-76
2022/05/16 00:32:33;;;;;;;6.47;3.50;;;17.90;54.20;;;;;;5078112;28;20113;-76
2022/05/16 00:34:59;;;;;;;6.80;3.30;;;17.90;54.00;;;;;;5061542;28;20020;-76
2022/05/16 00:37:28;;;;;;;8.13;3.38;;;17.80;54.60;;;;;;5095748;28;20074;-75
2022/05/16 00:39:54;;;;;;;6.82;3.58;;;17.80;54.70;;;;;;5096031;28;20060;-76
2022/05/16 00:42:21;;;;;;;6.25;3.17;;;17.80;54.80;;;;;;5077591;28;20040;-76
2022/05/16 00:44:47;;;;;;;;;;;17.80;54.70;;;;;;5077581;28;20046;-76
2022/05/16 00:47:13;;;;;;;6.32;3.17;;;17.70;53.70;;;;;;5077378;28;19928;-74
2022/05/16 00:49:45;;;;;;;6.75;3.53;;;17.70;54.40;;;;;;5095418;28;20044;-72
2022/05/16 00:52:33;;;;;;;6.88;3.28;;;17.70;54.90;;;;;;5095711;28;20055;-73
2022/05/16 00:55:07;;;;;;;5.45;3.17;;;17.60;54.80;;;;;;5077733;28;20038;-76
2022/05/16 00:57:39;;;;;;;8.38;4.03;;;17.60;55.20;;;;;;5077480;28;20081;-73
2022/05/16 01:00:10;;;;;;;6.88;3.25;;;17.50;55.40;;;;;;5059796;28;20063;-72
2022/05/16 01:05:27;;;;;;;7.47;3.58;;;17.50;55.60;;;;;;5079987;28;20050;-73
2022/05/16 01:08:02;;;;;;;9.10;4.13;;;17.40;55.40;;;;;;5077616;28;20119;-73
2022/05/16 01:10:28;;;;;;;6.07;2.95;;;17.40;55.80;;;;;;5076950;28;20028;-73
2022/05/16 01:12:54;;;;;;;12.25;3.80;;;17.40;55.30;;;;;;5077614;28;20430;-76
2022/05/16 01:15:42;;;;;;;;;;;17.40;56.00;;;;;;5076709;28;20039;-75
2022/05/16 01:18:11;;;;;;;6.50;3.72;;;17.30;54.90;;;;;;5077487;28;20280;-76
2022/05/16 01:21:22;;;;;;;7.05;3.65;;;17.20;55.60;;;;;;5059744;28;20035;-76
2022/05/16 01:24:10;;;;;;;7.55;3.55;;;17.20;55.70;;;;;;5095112;28;20047;-76
2022/05/16 01:26:37;;;;;;;6.00;3.40;;;17.10;55.80;;;;;;5076623;28;20083;-76
2022/05/16 01:29:09;;;;;;;6.43;3.28;;;17.10;56.00;;;;;;5076971;28;20032;-73
2022/05/16 01:31:36;;;;;;;7.15;3.45;;;17.10;56.30;;;;;;5076005;28;20036;-76
2022/05/16 01:34:03;;;;;;;6.20;2.95;;;17.10;56.30;;;;;;5075772;28;20066;-73
2022/05/16 01:36:29;;;;;;;7.60;3.40;;;17.10;56.50;;;;;;5094408;28;20074;-76
2022/05/16 01:38:55;;;;;;;8.63;3.67;;;17.10;56.60;;;;;;5076777;28;20032;-73
2022/05/16 01:41:26;;;;;;;;;;;17.10;56.70;;;;;;5060105;28;20036;-76
2022/05/16 01:43:56;;;;;;;6.43;3.72;;;17.10;55.70;;;;;;5076703;28;19912;-73
2022/05/16 01:46:41;;;;;;;6.10;3.67;;;17.00;56.70;;;;;;5093606;28;20036;-72
2022/05/16 01:49:10;;;;;;;6.95;3.65;;;17.00;57.00;;;;;;5059810;28;20024;-72
2022/05/16 01:51:37;;;;;;;8.05;3.10;;;17.00;57.20;;;;;;5075886;28;20439;-75
2022/05/16 01:54:04;;;;;;;7.28;3.80;;;16.90;57.10;;;;;;5076509;28;20032;-75
2022/05/16 01:56:32;;;;;;;6.63;3.17;;;16.90;56.90;;;;;;5075960;28;20044;-72
2022/05/16 01:59:03;;;;;;;7.10;3.45;;;16.90;56.90;;;;;;5076439;28;20052;-76
2022/05/16 02:01:30;;;;;;;6.85;2.75;;;16.80;56.90;;;;;;5093319;28;20035;-73
2022/05/16 02:03:56;;;;;;;5.72;2.88;;;16.70;56.70;;;;;;5076196;28;20031;-75
2022/05/16 02:06:22;;;;;;;6.75;2.75;;;16.60;56.70;;;;;;5059210;28;20040;-75
2022/05/16 02:08:49;;;;;;;5.72;2.92;;;16.60;56.70;;;;;;5059573;28;20032;-72
2022/05/16 02:11:15;;;;;;;;;;;16.50;56.70;;;;;;5076390;28;20032;-72
2022/05/16 02:13:43;;;;;;;5.88;3.17;;;16.40;55.90;;;;;;5059362;28;19911;-72
2022/05/16 02:16:10;;;;;;;6.57;3.47;;;16.40;56.40;;;;;;5092762;28;20035;-74
2022/05/16 02:18:37;;;;;;;6.00;3.28;;;16.40;56.70;;;;;;5094049;28;20067;-73
2022/05/16 02:26:33;;;;;;;8.77;3.58;;;16.30;57.00;;;;;;5078305;28;20139;-75
2022/05/16 02:28:59;;;;;;;8.95;3.40;;;16.20;57.20;;;;;;5075781;28;20441;-75
2022/05/16 02:31:25;;;;;;;8.15;3.22;;;16.20;56.60;;;;;;5092594;28;20055;-75
2022/05/16 02:33:51;;;;;;;6.85;3.70;;;16.20;58.20;;;;;;5094222;28;20370;-75
2022/05/16 02:36:17;;;;;;;6.72;3.58;;;16.20;57.30;;;;;;5093386;28;20044;-75
2022/05/16 02:38:44;;;;;;;6.75;3.60;;;16.20;57.40;;;;;;5093646;28;20422;-72
2022/05/16 02:41:10;;;;;;;8.77;3.50;;;16.10;57.20;;;;;;5074766;28;20081;-75
2022/05/16 02:43:36;;;;;;;7.88;3.92;;;16.20;57.50;;;;;;5058723;28;20389;-75
2022/05/16 02:46:02;;;;;;;;;;;16.20;58.00;;;;;;5074579;28;20039;-75
2022/05/16 02:48:28;;;;;;;6.53;3.42;;;16.20;56.90;;;;;;5075253;28;20360;-75
2022/05/16 02:50:54;;;;;;;9.80;3.75;;;16.10;57.50;;;;;;5074892;28;20530;-73
2022/05/16 02:53:20;;;;;;;7.30;3.83;;;16.10;57.70;;;;;;5075346;28;20160;-75
2022/05/16 02:55:47;;;;;;;7.30;4.13;;;16.10;57.70;;;;;;5092996;28;20065;-75
2022/05/16 02:58:13;;;;;;;7.82;3.75;;;16.10;58.60;;;;;;5058689;28;20054;-73
2022/05/16 03:00:39;;;;;;;14.13;3.90;;;16.10;58.10;;;;;;5074073;28;20032;-75
2022/05/16 03:03:05;;;;;;;7.97;3.72;;;16.10;58.20;;;;;;5075012;28;20054;-75
2022/05/16 03:05:32;;;;;;;10.68;3.78;;;16.00;58.10;;;;;;5093025;28;20063;-72
2022/05/16 03:07:59;;;;;;;8.43;3.70;;;16.00;58.20;;;;;;5075393;28;20093;-75
2022/05/16 03:10:26;;;;;;;10.45;3.95;;;16.00;57.70;;;;;;5058093;28;20028;-75
2022/05/16 03:12:53;;;;;;;15.98;3.90;;;16.00;58.30;;;;;;5075464;28;20459;-75
2022/05/16 03:15:19;;;;;;;11.27;4.30;;;16.00;58.60;;;;;;5073747;28;20102;-75
2022/05/16 03:17:45;;;;;;;9.90;4.50;;;15.90;58.80;;;;;;5074967;28;20040;-75
2022/05/16 03:20:15;;;;;;;7.68;3.60;;;15.90;58.80;;;;;;5057781;28;20081;-72
2022/05/16 03:22:41;;;;;;;9.38;4.20;;;15.90;58.70;;;;;;5074854;28;20093;-75
2022/05/16 03:25:09;;;;;;;8.20;4.18;;;15.80;58.70;;;;;;5074473;28;20040;-76
2022/05/16 03:27:35;;;;;;;7.05;3.63;;;15.80;58.50;;;;;;5074920;28;20039;-75
2022/05/16 03:30:01;;;;;;;9.45;3.53;;;15.80;59.00;;;;;;5092857;28;20036;-75
2022/05/16 03:32:27;;;;;;;6.43;2.63;;;15.80;58.70;;;;;;5073535;28;20123;-73
2022/05/16 03:34:54;;;;;;;6.72;3.25;;;15.70;58.50;;;;;;5092938;28;20028;-76
2022/05/16 03:37:21;;;;;;;7.90;2.80;;;15.50;58.40;;;;;;5074328;28;20051;-76
2022/05/16 03:42:34;;;;;;;6.40;3.58;;;15.50;58.50;;;;;;5077647;28;20403;-75
2022/05/16 03:45:00;;;;;;;;;;;15.50;58.40;;;;;;5075562;28;20441;-73
2022/05/16 03:47:28;;;;;;;6.22;3.50;;;15.50;57.90;;;;;;5073428;28;19970;-75
2022/05/16 03:49:54;;;;;;;6.60;3.47;;;15.50;58.50;;;;;;5074701;28;20082;-73
2022/05/16 03:52:21;;;;;;;8.35;3.08;;;15.50;58.60;;;;;;5092466;28;20085;-73
2022/05/16 03:54:47;;;;;;;7.57;3.40;;;15.50;58.10;;;;;;5074713;28;20035;-75
2022/05/16 03:57:13;;;;;;;9.65;3.53;;;15.50;58.60;;;;;;5074729;28;20412;-75
2022/05/16 03:59:39;;;;;;;8.15;3.63;;;15.50;58.60;;;;;;5061716;28;20051;-75
2022/05/16 04:02:08;;;;;;;7.30;3.20;;;15.60;58.60;;;;;;5077546;28;20427;-73
2022/05/16 04:04:34;;;;;;;7.63;3.88;;;15.60;58.80;;;;;;5062042;28;20064;-73
2022/05/16 04:07:00;;;;;;;9.40;3.55;;;15.50;59.10;;;;;;5078257;28;20036;-75
2022/05/16 04:09:27;;;;;;;9.68;3.42;;;15.50;59.20;;;;;;5096691;28;20469;-74
2022/05/16 04:11:53;;;;;;;12.68;3.70;;;15.60;59.00;;;;;;5077878;28;20028;-76
2022/05/16 04:14:19;;;;;;;11.15;4.03;;;15.60;58.90;;;;;;5061675;28;20032;-75
2022/05/16 04:16:45;;;;;;;14.88;4.75;;;15.60;58.90;;;;;;5077168;28;20392;-73
2022/05/16 04:19:11;;;;;;;14.20;3.90;;;15.70;58.80;;;;;;5078371;28;20439;-76
2022/05/16 04:21:38;;;;;;;11.57;4.15;;;15.70;58.90;;;;;;5077779;28;20040;-73
2022/05/16 04:24:06;;;;;;;13.18;4.25;;;15.70;58.90;;;;;;5078119;28;20077;-75
2022/05/16 04:26:34;;;;;;;14.77;4.47;;;15.80;59.00;;;;;;5062875;28;20057;-73
2022/05/16 04:29:04;;;;;;;12.90;5.15;;;15.80;59.20;;;;;;5058198;28;20039;-76
2022/05/16 04:31:33;;;;;;;12.38;5.20;;;15.80;59.30;;;;;;5055523;28;20041;-72
2022/05/16 04:34:09;;;;;;;10.40;5.03;;;15.80;59.10;;;;;;5057960;28;20434;-72
2022/05/16 04:36:39;;;;;;;19.42;4.88;;;15.90;59.30;;;;;;5058696;28;20493;-73
2022/05/16 04:39:17;;;;;;;10.88;4.13;;;15.90;59.70;;;;;;5041400;28;20485;-73
2022/05/16 04:44:28;;;;;;;11.02;4.95;;;16.10;59.70;;;;;;5060782;28;20094;-73
2022/05/16 04:46:54;;;;;;;9.57;4.93;;;16.10;59.70;;;;;;5056533;28;20045;-77
2022/05/16 04:49:22;;;;;;;7.25;5.07;;;16.20;59.80;;;;;;5057637;28;20051;-76
2022/05/16 04:51:49;;;;;;;7.07;4.60;;;16.20;60.30;;;;;;5075272;28;20045;-75
2022/05/16 04:54:15;;;;;;;;;;;16.20;60.70;;;;;;5075917;28;20036;-76
2022/05/16 04:56:41;;;;;;;10.00;5.00;;;16.30;59.60;;;;;;5040336;28;19920;-76
2022/05/16 04:59:07;;;;;;;13.60;5.03;;;16.30;60.60;;;;;;5057634;28;20405;-75
2022/05/16 05:01:33;;;;;;;8.52;5.30;;;16.30;60.80;;;;;;5056212;28;20416;-73
2022/05/16 05:03:59;;;;;;;13.70;5.57;;;16.40;61.20;;;;;;5057285;28;20486;-76
2022/05/16 05:06:25;;;;;;;9.90;5.63;;;16.50;61.30;;;;;;5040294;28;20494;-76
2022/05/16 05:08:51;;;;;;;9.55;4.97;;;16.50;61.30;;;;;;5075049;28;20370;-76
2022/05/16 05:16:49;;;;;;;11.75;4.70;;;16.80;61.10;;;;;;5073887;28;20480;-73
2022/05/16 05:19:15;;;;;;;9.13;5.10;;;16.90;61.30;;;;;;5075056;28;20033;-76
2022/05/16 05:21:43;;;;;;;7.35;4.65;;;16.90;61.60;;;;;;5056744;28;20045;-75
2022/05/16 05:24:10;;;;;;;9.75;5.40;;;17.00;61.70;;;;;;5074887;28;20112;-73
2022/05/16 05:26:36;;;;;;;;;;;17.10;61.90;;;;;;5072417;28;20064;-76
2022/05/16 05:29:03;;;;;;;8.95;5.13;;;17.10;60.50;;;;;;5077047;28;20320;-73
2022/05/16 05:31:29;;;;;;;7.22;4.72;;;17.20;61.70;;;;;;5075532;28;20443;-73
2022/05/16 05:34:04;;;;;;;8.77;5.15;;;17.30;61.90;;;;;;5077278;28;20054;-76
2022/05/16 05:36:31;;;;;;;10.10;6.35;;;17.40;61.90;;;;;;5060477;28;20476;-76
2022/05/16 05:39:01;;;;;;;10.07;6.05;;;17.50;62.10;;;;;;5060053;28;20028;-72
2022/05/16 05:41:27;;;;;;;10.48;5.32;;;17.60;62.20;;;;;;5077213;28;20036;-76
2022/05/16 05:43:53;;;;;;;;;;;17.70;62.20;;;;;;5077294;28;20063;-75
2022/05/16 05:46:29;;;;;;;11.30;5.72;;;17.80;60.80;;;;;;5076260;28;20013;-73
2022/05/16 05:48:55;;;;;;;14.57;6.13;;;17.90;60.70;;;;;;5078062;28;20446;-76
2022/05/16 05:51:21;;;;;;;10.50;7.10;;;18.00;61.20;;;;;;5059419;28;20496;-76
2022/05/16 05:53:47;;;;;;;9.18;6.25;;;18.10;61.50;;;;;;5076550;28;20040;-73
2022/05/16 05:56:14;;;;;;;9.13;5.38;;;18.30;61.20;;;;;;5076180;28;20384;-76
2022/05/16 05:58:40;;;;;;;8.00;5.55;;;18.30;60.60;;;;;;5059344;28;20059;-72
2022/05/16 06:01:07;;;;;;;9.23;5.95;;;18.50;61.20;;;;;;5075924;28;20032;-76
2022/05/16 06:03:37;;;;;;;10.98;6.20;;;18.50;61.10;;;;;;5093384;28;20036;-76
2022/05/16 06:06:03;;;;;;;8.38;5.80;;;18.70;61.10;;;;;;5058413;28;20069;-73
2022/05/16 06:08:29;;;;;;;8.45;5.47;;;18.80;60.50;;;;;;5076139;28;20028;-76
2022/05/16 06:10:56;;;;;;;;;;;18.90;61.20;;;;;;5076113;28;20490;-73
2022/05/16 06:13:22;;;;;;;14.48;8.43;;;19.00;60.00;;;;;;5058985;28;19916;-76
2022/05/16 06:15:48;;;;;;;9.20;5.30;;;19.10;60.10;;;;;;5075595;28;20119;-73
2022/05/16 06:18:16;;;;;;;9.82;5.20;;;19.30;60.10;;;;;;5075202;28;20058;-76
2022/05/16 06:20:43;;;;;;;11.57;5.78;;;19.40;59.60;;;;;;5093053;28;20039;-73
2022/05/16 06:23:09;;;;;;;;;;;19.50;59.30;;;;;;5095060;28;20108;-73
2022/05/16 06:25:39;;;;;;;7.63;4.95;;;19.70;58.20;;;;;;5093459;28;19920;-73
2022/05/16 06:28:19;;;;;;;8.80;4.75;;;19.80;57.60;;;;;;5076583;28;20497;-73
2022/05/16 06:30:48;;;;;;;9.88;5.60;;;19.90;57.70;;;;;;5058793;28;20501;-76
2022/05/16 06:33:17;;;;;;;11.43;6.20;;;20.10;57.80;;;;;;5075160;28;20032;-77
2022/05/16 06:35:48;;;;;;;10.38;5.80;;;20.10;57.80;;;;;;5075292;28;20503;-72
2022/05/16 06:38:19;;;;;;;8.02;5.15;;;20.20;57.80;;;;;;5075916;28;20032;-76
2022/05/16 06:40:55;;;;;;;12.07;6.10;;;20.40;57.60;;;;;;5075220;28;20032;-76
2022/05/16 06:43:23;;;;;;;11.20;6.63;;;20.60;57.30;;;;;;5075655;28;20443;-73
2022/05/16 06:45:51;;;;;;;8.85;5.38;;;20.80;56.90;;;;;;5058325;28;20558;-72
2022/05/16 06:48:17;;;;;;;8.88;5.65;;;20.80;56.90;;;;;;5074239;28;20035;-72
2022/05/16 06:50:46;;;;;;;11.43;6.05;;;21.00;56.40;;;;;;5093162;28;20032;-73
2022/05/16 06:53:36;;;;;;;8.82;5.68;;;21.30;56.20;;;;;;5075467;28;20474;-72
2022/05/16 06:56:04;;;;;;;9.55;5.50;;;21.50;55.80;;;;;;5074775;28;20032;-76
2022/05/16 06:58:31;;;;;;;9.05;5.25;;;21.70;55.50;;;;;;5093400;28;20028;-76
2022/05/16 07:00:57;;;;;;;10.77;5.60;;;21.90;55.20;;;;;;5092825;28;20370;-76
2022/05/16 07:03:24;;;;;;;8.52;5.53;;;22.00;54.50;;;;;;5092334;28;20044;-73
2022/05/16 07:05:51;;;;;;;14.02;5.50;;;22.10;54.00;;;;;;5074730;28;20089;-73
2022/05/16 07:08:19;;;;;;;10.95;5.50;;;22.30;54.10;;;;;;5058596;28;20446;-73
2022/05/16 07:10:48;;;;;;;16.50;6.00;;;22.60;53.50;;;;;;5074773;28;20052;-76
2022/05/16 07:13:16;;;;;;;11.02;5.78;;;22.90;53.20;;;;;;5075368;28;20485;-76
2022/05/16 07:15:43;;;;;;;8.95;5.63;;;23.10;52.50;;;;;;5074664;28;20497;-72
2022/05/16 07:18:09;;;;;;;10.82;5.28;;;23.20;51.90;;;;;;5073988;28;20039;-73
2022/05/16 07:20:36;;;;;;;10.65;5.70;;;23.40;52.70;;;;;;5092671;28;20036;-77
2022/05/16 07:23:06;;;;;;;8.57;5.28;;;23.40;52.80;;;;;;5058300;28;20439;-73
2022/05/16 07:28:23;;;;;;;14.63;5.20;;;23.60;52.30;;;;;;5092975;28;20474;-73
2022/05/16 07:30:50;;;;;;;10.10;5.43;;;23.70;52.10;;;;;;5092598;28;20039;-73
2022/05/16 07:33:17;;;;;;;10.15;5.28;;;23.80;51.60;;;;;;5052305;28;20421;-77
2022/05/16 07:35:43;;;;;;;8.57;5.25;;;23.80;51.50;;;;;;5054166;28;20548;-73
2022/05/16 07:38:09;;;;;;;;;;;24.00;51.20;;;;;;5073460;28;20469;-73
2022/05/16 07:40:37;;;;;;;8.00;5.03;;;24.10;51.30;;;;;;5053635;28;19916;-78
2022/05/16 07:43:04;;;;;;;7.32;4.30;;;24.20;50.20;;;;;;5054617;28;20037;-73
2022/05/16 07:45:31;;;;;;;9.75;5.28;;;24.10;49.50;;;;;;5054131;28;20037;-74
2022/05/16 07:48:02;;;;;;;11.00;4.97;;;24.30;50.30;;;;;;5059055;28;20491;-77
2022/05/16 07:50:48;;;;;;;7.85;5.15;;;24.40;49.50;;;;;;5092344;28;20048;-73
2022/05/16 07:53:15;;;;;;;8.00;4.57;;;24.60;49.50;;;;;;5092481;28;20032;-73
2022/05/16 07:56:03;;;;;;;7.88;4.55;;;24.70;48.70;;;;;;5074156;28;20047;-74
2022/05/16 07:58:30;;;;;;;11.63;4.28;;;24.80;48.10;;;;;;5057750;28;20128;-78
2022/05/16 08:00:56;;;;;;;12.55;5.10;;;24.80;47.90;;;;;;5074233;28;20520;-78
2022/05/16 08:03:26;;;;;;;7.85;4.72;;;24.90;48.20;;;;;;5073518;28;20032;-78
2022/05/16 08:06:01;;;;;;;9.07;4.80;;;25.10;47.90;;;;;;5074106;28;20032;-73
2022/05/16 08:11:14;;;;;;;;;;;25.30;47.10;;;;;;5077113;28;20089;-73
2022/05/16 08:13:41;;;;;;;6.90;4.75;;;25.50;46.80;;;;;;5074248;28;19916;-73
2022/05/16 08:16:09;;;;;;;11.07;4.85;;;25.60;46.40;;;;;;5074033;28;20036;-73
2022/05/16 08:18:38;;;;;;;6.72;4.47;;;25.70;46.10;;;;;;5073330;28;20496;-77
2022/05/16 08:21:04;;;;;;;10.18;4.20;;;26.00;45.50;;;;;;5073875;28;20026;-78
2022/05/16 08:23:31;;;;;;;7.45;4.45;;;26.20;43.70;;;;;;5074290;28;20036;-73
2022/05/16 08:26:01;;;;;;;7.63;4.55;;;26.50;44.00;;;;;;5091781;28;20111;-73
2022/05/16 08:28:28;;;;;;;7.05;4.45;;;26.80;43.10;;;;;;5074805;28;20075;-74
2022/05/16 08:30:54;;;;;;;8.70;4.05;;;27.10;42.60;;;;;;5091753;28;20028;-73
2022/05/16 08:33:20;;;;;;;8.50;4.40;;;27.50;41.40;;;;;;5091330;28;20044;-73
2022/05/16 08:39:52;;;;;;;6.80;4.38;;;28.00;40.90;;;;;;5073870;28;20407;-78
2022/05/16 08:41:24;;;;;;;15.77;4.53;;;29.10;39.70;;;;;;5076501;28;20165;-78
2022/05/16 08:44:07;;;;;;;7.68;4.38;;;29.60;38.90;;;;;;5075632;28;20032;-78
2022/05/16 08:47:11;;;;;;;7.72;4.88;;;30.10;37.90;;;;;;5077983;28;20082;-78
2022/05/16 08:49:47;;;;;;;7.22;4.07;;;30.90;37.80;;;;;;5094960;28;20409;-73
2022/05/16 08:53:11;;;;;;;7.00;4.15;;;31.70;34.80;;;;;;5077553;28;20115;-78
2022/05/16 08:56:34;;;;;;;7.35;3.90;;;32.60;35.60;;;;;;5077135;28;20040;-78
2022/05/16 08:59:24;;;;;;;7.28;4.18;;;33.30;34.60;;;;;;5095650;28;20055;-74
2022/05/16 09:02:28;;;;;;;6.10;3.80;;;33.90;32.40;;;;;;5077249;28;20193;-73
2022/05/16 09:05:18;;;;;;;8.18;4.53;;;34.50;31.60;;;;;;5076498;28;20036;-77
2022/05/16 09:08:06;;;;;;;9.95;4.07;;;35.30;30.30;;;;;;5095709;28;20028;-73
2022/05/16 09:11:03;;;;;;;6.82;3.55;;;36.10;28.70;;;;;;5095047;28;20028;-74
2022/05/16 09:13:56;;;;;;;11.23;3.85;;;36.80;28.10;;;;;;5077249;28;20040;-77
2022/05/16 09:16:41;;;;;;;8.38;3.30;;;37.50;27.80;;;;;;5060092;28;20036;-77
2022/05/16 09:19:52;;;;;;;7.30;3.85;;;37.70;26.20;;;;;;5076383;28;20050;-74
2022/05/16 09:23:15;;;;;;;7.47;3.35;;;37.80;26.10;;;;;;5095145;28;20032;-77
2022/05/16 09:26:11;;;;;;;6.85;3.63;;;37.50;26.00;;;;;;5094643;28;20048;-76
2022/05/16 09:28:47;;;;;;;8.90;3.80;;;37.80;25.50;;;;;;5095139;28;20404;-77
2022/05/16 09:31:28;;;;;;;5.88;3.72;;;38.30;24.60;;;;;;5076654;28;20457;-76
2022/05/16 09:33:59;;;;;;;5.78;3.75;;;38.90;23.80;;;;;;5076163;28;20506;-77
2022/05/16 09:36:49;;;;;;;5.15;3.30;;;39.60;23.50;;;;;;5076308;28;20028;-74
2022/05/16 09:39:35;;;;;;;5.22;3.22;;;40.20;23.50;;;;;;5077242;28;20043;-77
2022/05/16 09:42:21;;;;;;;5.68;3.60;;;41.20;22.90;;;;;;5076286;28;20032;-77
2022/05/16 09:45:03;;;;;;;5.90;3.70;;;42.00;22.30;;;;;;5059993;28;20032;-73
2022/05/16 09:47:29;;;;;;;14.68;3.88;;;42.60;21.00;;;;;;5076274;28;20102;-73
2022/05/16 09:50:14;;;;;;;7.90;3.65;;;43.10;20.80;;;;;;5093883;28;20040;-77
2022/05/16 09:53:09;;;;;;;7.45;4.28;;;43.90;20.30;;;;;;5094982;28;20036;-77
2022/05/16 09:55:46;;;;;;;6.43;3.33;;;44.60;19.90;;;;;;5093266;28;20119;-73
2022/05/16 09:58:45;;;;;;;7.00;3.63;;;45.00;19.10;;;;;;5094989;28;20389;-73
2022/05/16 10:01:11;;;;;;;18.92;3.90;;;45.70;19.00;;;;;;5076074;28;20442;-73
2022/05/16 10:03:56;;;;;;;5.35;3.28;;;46.10;17.90;;;;;;5075455;28;20039;-74
2022/05/16 10:06:44;;;;;;;8.27;3.67;;;46.50;17.50;;;;;;5059152;28;20093;-76
2022/05/16 10:09:30;;;;;;;6.47;3.42;;;46.80;16.10;;;;;;5076321;28;20058;-76
2022/05/16 10:11:57;;;;;;;8.25;3.30;;;46.90;15.70;;;;;;5059215;28;20092;-73
2022/05/16 10:14:26;;;;;;;8.48;3.88;;;47.10;15.50;;;;;;5076101;28;20040;-73
2022/05/16 10:16:53;;;;;;;7.15;3.50;;;47.60;14.90;;;;;;5059093;28;20047;-75
2022/05/16 10:19:26;;;;;;;5.47;3.40;;;47.50;14.80;;;;;;5075234;28;20040;-73
2022/05/16 10:22:31;;;;;;;11.00;3.90;;;47.80;14.60;;;;;;5094042;28;20401;-75
2022/05/16 10:24:59;;;;;;;5.00;3.35;;;48.10;15.40;;;;;;5075986;28;20441;-72
2022/05/16 10:27:46;;;;;;;8.50;3.65;;;48.30;13.90;;;;;;5075665;28;20520;-75
2022/05/16 10:30:21;;;;;;;6.18;3.80;;;48.50;14.60;;;;;;5093478;28;20025;-76
2022/05/16 10:35:47;;;;;;;7.97;3.65;;;49.60;13.70;;;;;;5077247;28;20055;-76
2022/05/16 10:38:58;;;;;;;7.03;3.67;;;49.80;13.20;;;;;;5058789;28;20439;-76
2022/05/16 10:42:05;;;;;;;5.20;3.90;;;50.10;13.60;;;;;;5075000;28;20081;-75
2022/05/16 10:45:09;;;;;;;7.78;3.35;;;50.50;13.30;;;;;;5093991;28;20465;-73
2022/05/16 10:48:34;;;;;;;10.38;3.90;;;50.00;13.70;;;;;;5075592;28;20036;-76
2022/05/16 10:51:33;;;;;;;6.65;3.75;;;49.70;14.10;;;;;;5092323;28;20104;-73
2022/05/16 10:54:05;;;;;;;5.25;3.55;;;50.30;13.30;;;;;;5093506;28;20047;-73
2022/05/16 10:57:08;;;;;;;20.58;4.18;;;51.20;12.90;;;;;;5092978;28;20115;-76
2022/05/16 11:00:11;;;;;;;6.32;4.30;;;51.80;12.20;;;;;;5093480;28;20039;-75
2022/05/16 11:03:33;;;;;;;5.20;3.72;;;52.40;13.00;;;;;;5093789;28;20043;-73
2022/05/16 11:06:26;;;;;;;8.18;4.50;;;53.00;12.50;;;;;;5091979;28;20489;-76
2022/05/16 11:09:25;;;;;;;10.30;4.80;;;52.90;12.00;;;;;;5093305;28;20032;-73
2022/05/16 11:12:08;;;;;;;5.88;4.13;;;53.10;12.10;;;;;;5074840;28;20480;-74
2022/05/16 11:15:16;;;;;;;19.10;4.85;;;53.00;12.00;;;;;;5058523;28;20074;-73
2022/05/16 11:18:20;;;;;;;8.30;4.40;;;53.10;12.00;;;;;;5093226;28;20036;-73
2022/05/16 11:21:44;;;;;;;6.68;4.55;;;53.50;11.50;;;;;;5073689;28;20493;-76
2022/05/16 11:24:38;;;;;;;5.82;4.63;;;54.20;11.40;;;;;;5092926;28;20044;-73
2022/05/16 11:28:00;;;;;;;5.70;4.55;;;54.70;11.00;;;;;;5092884;28;20059;-76
2022/05/16 11:30:50;;;;;;;6.10;4.60;;;54.70;11.10;;;;;;5058052;28;20562;-75
2022/05/16 11:33:49;;;;;;;7.45;4.65;;;54.70;10.40;;;;;;5058185;28;20392;-76
2022/05/16 11:37:29;;;;;;;7.82;4.63;;;54.50;10.80;;;;;;5073544;28;20040;-73
2022/05/16 11:40:25;;;;;;;7.07;4.85;;;55.00;11.30;;;;;;5092766;28;20032;-75
2022/05/16 11:43:21;;;;;;;6.47;4.20;;;55.50;10.30;;;;;;5074672;28;20040;-73
2022/05/16 11:46:18;;;;;;;9.57;4.53;;;55.00;11.00;;;;;;5092408;28;20036;-73
2022/05/16 11:49:16;;;;;;;5.45;4.95;;;55.20;10.60;;;;;;5074397;28;20032;-75
2022/05/16 11:52:39;;;;;;;9.85;4.68;;;56.00;10.60;;;;;;5053314;28;20485;-73
2022/05/16 12:01:51;;;;;;;8.32;5.00;;;55.70;9.30;;;;;;5057065;28;20036;-73
2022/05/16 12:04:24;;;;;;;20.40;6.28;;;55.40;10.20;;;;;;5072361;28;20040;-74
2022/05/16 12:07:46;;;;;;;8.38;5.35;;;56.00;9.80;;;;;;5055919;28;20070;-73
2022/05/16 12:10:32;;;;;;;6.22;4.65;;;56.00;9.70;;;;;;5073948;28;20047;-74
2022/05/16 12:13:38;;;;;;;5.45;4.95;;;56.20;9.50;;;;;;5074843;28;20035;-76
2022/05/16 12:16:13;;;;;;;7.32;4.88;;;55.50;9.20;;;;;;5074364;28;20044;-75
2022/05/16 12:19:29;;;;;;;6.43;5.03;;;55.70;9.50;;;;;;5093717;28;20037;-73
2022/05/16 12:22:08;;;;;;;7.25;5.45;;;55.90;9.50;;;;;;5060490;28;20397;-75
2022/05/16 12:25:09;;;;;;;8.00;5.45;;;56.30;9.50;;;;;;5078596;28;20025;-73
2022/05/16 12:27:57;;;;;;;6.90;6.18;;;56.70;9.50;;;;;;5078310;28;20042;-76
2022/05/16 12:31:00;;;;;;;7.05;5.97;;;57.10;9.10;;;;;;5095932;28;20032;-73
2022/05/16 12:33:44;;;;;;;6.53;5.82;;;57.00;9.30;;;;;;5096191;28;20504;-76
2022/05/16 12:36:13;;;;;;;5.25;4.68;;;56.70;9.00;;;;;;5076656;28;20497;-73
2022/05/16 12:38:41;;;;;;;9.48;5.70;;;56.30;9.20;;;;;;5096006;28;20044;-75
2022/05/16 12:44:40;;;;;;;7.10;5.75;;;56.30;9.50;;;;;;5080764;28;20096;-75
2022/05/16 12:47:37;;;;;;;;;;;56.60;9.60;;;;;;5078566;28;20040;-76
2022/05/16 12:51:00;;;;;;;8.85;5.45;;;56.60;9.90;;;;;;5076755;28;20296;-73
2022/05/16 12:54:22;;;;;;;7.57;6.47;;;56.90;9.30;;;;;;5095745;28;20048;-73
2022/05/16 12:56:57;;;;;;;8.80;6.03;;;56.80;9.50;;;;;;5095522;28;20111;-73
2022/05/16 13:00:22;;;;;;;8.45;5.47;;;57.10;9.70;;;;;;5077597;28;20024;-75
2022/05/16 13:03:28;;;;;;;7.40;6.25;;;57.50;9.60;;;;;;5077564;28;20043;-73
2022/05/16 13:06:05;;;;;;;6.78;5.80;;;57.60;9.00;;;;;;5076184;28;20040;-72
2022/05/16 13:08:55;;;;;;;6.80;6.20;;;56.70;9.00;;;;;;5077477;28;20032;-73
2022/05/16 13:11:59;;;;;;;8.07;6.00;;;56.90;9.20;;;;;;5077158;28;20032;-75
2022/05/16 13:15:26;;;;;;;9.90;5.95;;;57.30;9.70;;;;;;5095467;28;20036;-73
2022/05/16 13:17:58;;;;;;;8.25;5.45;;;57.60;9.30;;;;;;5095775;28;20047;-73
2022/05/16 13:20:35;;;;;;;9.27;5.18;;;56.70;9.10;;;;;;5076285;28;20036;-75
2022/05/16 13:23:03;;;;;;;10.48;5.57;;;56.70;9.10;;;;;;5077323;28;20074;-72
2022/05/16 13:29:21;;;;;;;6.78;6.00;;;55.80;9.60;;;;;;5053890;28;20519;-75
2022/05/16 13:31:07;;;;;;;6.25;4.70;;;54.80;9.70;;;;;;5057998;28;20101;-73
2022/05/16 13:33:53;;;;;;;9.43;4.72;;;53.90;9.40;;;;;;5057005;28;20429;-72
2022/05/16 13:36:22;;;;;;;7.05;4.65;;;53.60;10.00;;;;;;5055465;28;20098;-72
2022/05/16 13:39:11;;;;;;;5.07;4.05;;;53.80;9.80;;;;;;5074681;28;20047;-73
2022/05/16 13:41:38;;;;;;;5.47;3.90;;;52.90;9.90;;;;;;5056547;28;20068;-72
2022/05/16 13:44:10;;;;;;;6.65;4.32;;;53.10;9.90;;;;;;5039974;28;20028;-72
2022/05/16 13:46:36;;;;;;;8.40;4.68;;;53.00;10.20;;;;;;5056328;28;20468;-73
2022/05/16 13:49:21;;;;;;;7.35;4.45;;;53.50;10.00;;;;;;5074627;28;20037;-75
2022/05/16 13:51:52;;;;;;;10.07;4.20;;;53.90;9.90;;;;;;5055615;28;20044;-72
2022/05/16 13:54:37;;;;;;;7.13;3.60;;;53.80;9.80;;;;;;5074542;28;20037;-73
2022/05/16 13:57:23;;;;;;;5.65;3.92;;;53.10;10.10;;;;;;5056018;28;20497;-72
2022/05/16 14:00:46;;;;;;;6.70;3.65;;;51.70;10.20;;;;;;5056568;28;20112;-72
2022/05/16 14:03:33;;;;;;;4.35;3.03;;;51.00;10.30;;;;;;5074738;28;20043;-75
2022/05/16 14:06:02;;;;;;;5.57;3.28;;;50.60;10.30;;;;;;5038361;28;20048;-72
2022/05/16 14:08:48;;;;;;;7.00;3.22;;;50.30;10.80;;;;;;5074098;28;20051;-72
2022/05/16 14:11:19;;;;;;;20.50;3.42;;;48.90;11.60;;;;;;5056162;28;20120;-76
2022/05/16 14:13:54;;;;;;;5.10;3.03;;;47.20;12.70;;;;;;5056322;28;20037;-75
2022/05/16 14:16:27;;;;;;;5.30;3.42;;;46.10;13.00;;;;;;5056373;28;20378;-73
2022/05/16 14:19:13;;;;;;;10.93;2.97;;;44.60;13.70;;;;;;5039431;28;20047;-72
2022/05/16 14:22:01;;;;;;;4.15;2.53;;;44.00;14.40;;;;;;5038032;28;20102;-73